Time;durP1;ratioP1;P1;durP2;ratioP2;P2;SDS_P1;SDS_P2;PMS_P1;PMS_P2;Temp;Humidity;BMP_temperature;BMP_pressure;BME280_temperature;BME280_humidity;BME280_pressure;Samples;Min_cycle;Max_cycle;Signal;HPM_P1;HPM_P2
2023/02/03 00:01:50;;;;;;;0.30;0.30;;;;;;;;;;7397102;19;20144;-94
2023/02/03 00:04:17;;;;;;;0.20;0.20;;;;;;;;;;7397359;19;20198;-93
2023/02/03 00:06:44;;;;;;;0.30;0.30;;;;;;;;;;7396393;19;20137;-94
2023/02/03 00:09:14;;;;;;;0.30;0.30;;;;;;;;;;7396298;19;20155;-94
2023/02/03 00:11:44;;;;;;;0.20;0.20;;;;;;;;;;7399505;19;20152;-94
2023/02/03 00:14:10;;;;;;;0.20;0.20;;;;;;;;;;7400586;19;20680;-92
2023/02/03 00:16:37;;;;;;;0.30;0.30;;;;;;;;;;7394376;19;20136;-91
2023/02/03 00:19:04;;;;;;;0.20;0.20;;;;;;;;;;7394785;19;20136;-92
2023/02/03 00:21:30;;;;;;;0.20;0.20;;;;;;;;;;7393817;19;20137;-92
2023/02/03 00:23:57;;;;;;;0.30;0.30;;;;;;;;;;7394426;19;20624;-92
2023/02/03 00:26:24;;;;;;;0.30;0.30;;;;;;;;;;7394955;19;20129;-92
2023/02/03 00:28:51;;;;;;;0.23;0.23;;;;;;;;;;7393855;19;20145;-91
2023/02/03 00:31:20;;;;;;;1.07;1.07;;;;;;;;;;7394237;19;20786;-92
2023/02/03 00:33:57;;;;;;;0.30;0.30;;;;;;;;;;7392878;19;20220;-92
2023/02/03 00:36:25;;;;;;;0.30;0.30;;;;;;;;;;7394455;19;20148;-92
2023/02/03 00:38:52;;;;;;;0.20;0.20;;;;;;;;;;7395464;19;20165;-92
2023/02/03 00:41:19;;;;;;;0.30;0.30;;;;;;;;;;7392557;19;20141;-92
2023/02/03 00:43:47;;;;;;;0.60;0.60;;;;;;;;;;7392472;19;20157;-91
2023/02/03 00:46:14;;;;;;;0.30;0.30;;;;;;;;;;7392671;19;20133;-92
2023/02/03 00:48:41;;;;;;;0.30;0.30;;;;;;;;;;7393362;19;20537;-92
2023/02/03 00:51:07;;;;;;;0.20;0.20;;;;;;;;;;7393059;19;20503;-93
2023/02/03 00:53:34;;;;;;;0.30;0.30;;;;;;;;;;7392744;19;20152;-93
2023/02/03 00:56:01;;;;;;;0.30;0.30;;;;;;;;;;7392814;19;20140;-92
2023/02/03 00:58:27;;;;;;;1.53;1.53;;;;;;;;;;7392718;19;20214;-91
2023/02/03 01:00:55;;;;;;;0.30;0.30;;;;;;;;;;7392266;19;20137;-93
2023/02/03 01:03:22;;;;;;;0.30;0.30;;;;;;;;;;7393853;19;20152;-91
2023/02/03 01:05:49;;;;;;;0.40;0.40;;;;;;;;;;7393395;19;20130;-91
2023/02/03 01:08:15;;;;;;;0.60;0.60;;;;;;;;;;7394143;19;20140;-93
2023/02/03 01:10:44;;;;;;;0.83;0.80;;;;;;;;;;7394312;19;20723;-93
2023/02/03 01:13:10;;;;;;;0.87;0.87;;;;;;;;;;7392505;19;20168;-92
2023/02/03 01:15:37;;;;;;;3.97;0.57;;;;;;;;;;7391817;19;20148;-93
2023/02/03 01:18:04;;;;;;;0.37;0.37;;;;;;;;;;7392532;19;20144;-90
2023/02/03 01:20:30;;;;;;;1.03;0.83;;;;;;;;;;7392956;19;20137;-94
2023/02/03 01:23:00;;;;;;;0.30;0.30;;;;;;;;;;7393588;19;20156;-92
2023/02/03 01:25:26;;;;;;;0.20;0.20;;;;;;;;;;7393541;19;20489;-91
2023/02/03 01:27:53;;;;;;;0.50;0.50;;;;;;;;;;7393013;19;20159;-93
2023/02/03 01:30:20;;;;;;;0.50;0.50;;;;;;;;;;7399113;19;20129;-93
2023/02/03 01:32:47;;;;;;;0.43;0.43;;;;;;;;;;7398092;19;20767;-90
2023/02/03 01:35:13;;;;;;;0.30;0.30;;;;;;;;;;7394045;19;20171;-93
2023/02/03 01:37:40;;;;;;;0.53;0.43;;;;;;;;;;7396799;19;20129;-92
2023/02/03 01:40:07;;;;;;;0.47;0.47;;;;;;;;;;7396457;19;20141;-93
2023/02/03 01:42:34;;;;;;;0.73;0.53;;;;;;;;;;7398210;19;20137;-94
2023/02/03 01:45:00;;;;;;;1.43;0.43;;;;;;;;;;7391412;19;20157;-91
2023/02/03 01:47:46;;;;;;;0.63;0.63;;;;;;;;;;7393572;19;20130;-92
2023/02/03 01:50:17;;;;;;;0.30;0.30;;;;;;;;;;7392298;19;20139;-92
2023/02/03 01:52:46;;;;;;;0.50;0.50;;;;;;;;;;7392107;19;20594;-93
2023/02/03 01:55:17;;;;;;;0.40;0.40;;;;;;;;;;7391157;19;20153;-91
2023/02/03 01:58:08;;;;;;;0.30;0.30;;;;;;;;;;7398793;19;20132;-92
2023/02/03 02:00:35;;;;;;;0.40;0.40;;;;;;;;;;7407654;19;20137;-91
2023/02/03 02:03:03;;;;;;;0.50;0.50;;;;;;;;;;7400295;19;20133;-93
2023/02/03 02:05:37;;;;;;;0.53;0.53;;;;;;;;;;7402007;19;20492;-88
2023/02/03 02:08:05;;;;;;;0.40;0.40;;;;;;;;;;7399274;19;20138;-93
2023/02/03 02:10:38;;;;;;;0.40;0.40;;;;;;;;;;7401897;19;20133;-93
2023/02/03 02:13:05;;;;;;;0.20;0.20;;;;;;;;;;7400764;19;20133;-93
2023/02/03 02:15:38;;;;;;;0.30;0.30;;;;;;;;;;7401590;19;20476;-90
2023/02/03 02:18:35;;;;;;;0.20;0.20;;;;;;;;;;7401623;19;20129;-90
2023/02/03 02:21:35;;;;;;;0.30;0.30;;;;;;;;;;7401880;19;20133;-92
2023/02/03 02:24:18;;;;;;;0.30;0.30;;;;;;;;;;7396671;19;20149;-92
2023/02/03 02:27:15;;;;;;;0.30;0.30;;;;;;;;;;7399616;19;20156;-94
2023/02/03 02:30:01;;;;;;;0.30;0.30;;;;;;;;;;7399248;19;20154;-92
2023/02/03 02:32:35;;;;;;;0.30;0.30;;;;;;;;;;7397503;19;20133;-92
2023/02/03 02:35:13;;;;;;;0.30;0.30;;;;;;;;;;7396420;19;20160;-90
2023/02/03 02:38:03;;;;;;;0.30;0.30;;;;;;;;;;7398081;19;20172;-92
2023/02/03 02:40:35;;;;;;;0.30;0.30;;;;;;;;;;7397665;19;20141;-91
2023/02/03 02:43:04;;;;;;;0.30;0.30;;;;;;;;;;7399810;19;20129;-93
2023/02/03 02:45:44;;;;;;;0.30;0.30;;;;;;;;;;7398159;19;20536;-93
2023/02/03 02:48:31;;;;;;;0.30;0.30;;;;;;;;;;7398712;19;20140;-93
2023/02/03 02:50:59;;;;;;;0.30;0.30;;;;;;;;;;7398244;19;20155;-92
2023/02/03 02:53:30;;;;;;;0.30;0.30;;;;;;;;;;7400383;19;20147;-92
2023/02/03 02:56:00;;;;;;;0.30;0.30;;;;;;;;;;7399511;19;20144;-91
2023/02/03 02:58:28;;;;;;;0.30;0.30;;;;;;;;;;7399607;19;20678;-93
2023/02/03 03:00:54;;;;;;;0.30;0.30;;;;;;;;;;7400401;19;20122;-92
2023/02/03 03:03:23;;;;;;;0.30;0.30;;;;;;;;;;7399883;19;20149;-93
2023/02/03 03:05:59;;;;;;;0.30;0.30;;;;;;;;;;7400846;19;20141;-92
2023/02/03 03:08:34;;;;;;;0.30;0.30;;;;;;;;;;7399501;19;20159;-91
2023/02/03 03:11:02;;;;;;;0.20;0.20;;;;;;;;;;7398336;19;20121;-92
2023/02/03 03:13:32;;;;;;;0.20;0.20;;;;;;;;;;7401004;19;20157;-93
2023/02/03 03:16:00;;;;;;;0.30;0.30;;;;;;;;;;7400816;19;20259;-93
2023/02/03 03:18:30;;;;;;;0.20;0.20;;;;;;;;;;7405898;19;20208;-95
2023/02/03 03:21:04;;;;;;;0.30;0.30;;;;;;;;;;7400979;19;20133;-93
2023/02/03 03:23:38;;;;;;;0.20;0.20;;;;;;;;;;7400429;19;20137;-94
2023/02/03 03:26:37;;;;;;;0.30;0.30;;;;;;;;;;7398339;19;20152;-92
2023/02/03 03:29:41;;;;;;;0.30;0.30;;;;;;;;;;7397570;19;20156;-94
2023/02/03 03:32:08;;;;;;;0.20;0.20;;;;;;;;;;7397314;19;20597;-91
2023/02/03 03:34:34;;;;;;;0.30;0.30;;;;;;;;;;7395398;19;20160;-92
2023/02/03 03:37:25;;;;;;;0.30;0.30;;;;;;;;;;7396496;19;20635;-91
2023/02/03 03:39:57;;;;;;;0.23;0.23;;;;;;;;;;7396640;19;20129;-93
2023/02/03 03:42:32;;;;;;;0.60;0.60;;;;;;;;;;7397106;19;20632;-92
2023/02/03 03:45:32;;;;;;;0.30;0.30;;;;;;;;;;7398494;19;20542;-94
2023/02/03 03:48:11;;;;;;;0.30;0.30;;;;;;;;;;7399416;19;20636;-92
2023/02/03 03:50:50;;;;;;;0.30;0.30;;;;;;;;;;7419716;19;20140;-93
2023/02/03 03:53:17;;;;;;;0.30;0.30;;;;;;;;;;7425800;19;20159;-93
2023/02/03 03:55:47;;;;;;;0.30;0.30;;;;;;;;;;7421296;19;20148;-93
2023/02/03 03:58:22;;;;;;;0.30;0.30;;;;;;;;;;7422757;19;20133;-92
2023/02/03 04:00:49;;;;;;;0.30;0.30;;;;;;;;;;7406979;19;20132;-92
2023/02/03 04:03:19;;;;;;;0.20;0.20;;;;;;;;;;7395793;19;20137;-92
2023/02/03 04:05:46;;;;;;;0.30;0.30;;;;;;;;;;7396426;19;20129;-92
2023/02/03 04:08:13;;;;;;;0.20;0.20;;;;;;;;;;7395477;19;20140;-91
2023/02/03 04:10:41;;;;;;;0.30;0.30;;;;;;;;;;7395733;19;20137;-92
2023/02/03 04:13:09;;;;;;;0.30;0.30;;;;;;;;;;7395133;19;20133;-93
2023/02/03 04:15:36;;;;;;;0.30;0.30;;;;;;;;;;7395515;19;20137;-91
2023/02/03 04:18:03;;;;;;;0.20;0.20;;;;;;;;;;7395887;19;20131;-92
2023/02/03 04:20:31;;;;;;;0.30;0.30;;;;;;;;;;7393477;19;20593;-90
2023/02/03 04:22:58;;;;;;;0.20;0.20;;;;;;;;;;7394196;19;20133;-90
2023/02/03 04:25:25;;;;;;;0.30;0.30;;;;;;;;;;7393680;19;20624;-91
2023/02/03 04:27:51;;;;;;;0.30;0.30;;;;;;;;;;7395399;19;20128;-91
2023/02/03 04:30:18;;;;;;;0.30;0.30;;;;;;;;;;7394689;19;20137;-92
2023/02/03 04:33:00;;;;;;;0.30;0.30;;;;;;;;;;7394448;19;20133;-92
2023/02/03 04:35:27;;;;;;;0.20;0.20;;;;;;;;;;7394921;19;20129;-92
2023/02/03 04:37:53;;;;;;;0.20;0.20;;;;;;;;;;7394758;19;20125;-91
2023/02/03 04:40:20;;;;;;;0.30;0.30;;;;;;;;;;7394547;19;20140;-90
2023/02/03 04:42:46;;;;;;;0.30;0.30;;;;;;;;;;7392318;19;20129;-91
2023/02/03 04:45:13;;;;;;;0.30;0.30;;;;;;;;;;7393262;19;20168;-93
2023/02/03 04:47:39;;;;;;;0.30;0.30;;;;;;;;;;7394836;19;20137;-93
2023/02/03 04:50:06;;;;;;;0.30;0.30;;;;;;;;;;7395444;19;20557;-92
2023/02/03 04:52:33;;;;;;;0.20;0.20;;;;;;;;;;7394466;19;20149;-92
2023/02/03 04:54:59;;;;;;;0.30;0.30;;;;;;;;;;7392400;19;20180;-90
2023/02/03 04:57:26;;;;;;;0.30;0.30;;;;;;;;;;7394647;19;20629;-91
2023/02/03 04:59:53;;;;;;;0.30;0.30;;;;;;;;;;7395406;19;20129;-93
2023/02/03 05:02:19;;;;;;;0.30;0.30;;;;;;;;;;7394406;19;20143;-93
2023/02/03 05:04:46;;;;;;;0.30;0.30;;;;;;;;;;7393424;19;20153;-93
2023/02/03 05:07:12;;;;;;;0.27;0.27;;;;;;;;;;7394331;19;20137;-92
2023/02/03 05:09:39;;;;;;;0.30;0.30;;;;;;;;;;7394363;19;20497;-94
2023/02/03 05:12:05;;;;;;;0.40;0.40;;;;;;;;;;7394646;19;20125;-92
2023/02/03 05:14:32;;;;;;;0.30;0.30;;;;;;;;;;7393133;19;20518;-93
2023/02/03 05:16:59;;;;;;;0.30;0.30;;;;;;;;;;7393929;19;20156;-90
2023/02/03 05:19:25;;;;;;;0.30;0.30;;;;;;;;;;7393890;19;20462;-91
2023/02/03 05:21:52;;;;;;;0.20;0.20;;;;;;;;;;7392995;19;20125;-90
2023/02/03 05:24:18;;;;;;;0.30;0.30;;;;;;;;;;7393561;19;20151;-92
2023/02/03 05:26:45;;;;;;;0.27;0.27;;;;;;;;;;7393368;19;20611;-91
2023/02/03 05:29:11;;;;;;;0.30;0.30;;;;;;;;;;7395073;19;20133;-93
2023/02/03 05:31:44;;;;;;;0.30;0.30;;;;;;;;;;7396676;19;20129;-92
2023/02/03 05:34:11;;;;;;;0.30;0.30;;;;;;;;;;7399949;19;20644;-92
2023/02/03 05:36:38;;;;;;;0.30;0.30;;;;;;;;;;7403102;19;20151;-93
2023/02/03 05:39:04;;;;;;;0.30;0.30;;;;;;;;;;7401190;19;20504;-91
2023/02/03 05:44:16;;;;;;;0.30;0.30;;;;;;;;;;7399279;19;20267;-93
2023/02/03 05:46:43;;;;;;;0.30;0.30;;;;;;;;;;7402577;19;20165;-91
2023/02/03 05:49:09;;;;;;;0.30;0.30;;;;;;;;;;7402553;19;20608;-91
2023/02/03 05:51:38;;;;;;;0.30;0.30;;;;;;;;;;7402798;19;20156;-92
2023/02/03 05:54:05;;;;;;;0.30;0.30;;;;;;;;;;7399503;19;20170;-93
2023/02/03 05:56:32;;;;;;;0.30;0.30;;;;;;;;;;7401588;19;20152;-91
2023/02/03 05:59:03;;;;;;;0.30;0.30;;;;;;;;;;7400946;19;20241;-94
2023/02/03 06:01:30;;;;;;;0.30;0.30;;;;;;;;;;7400190;19;20129;-92
2023/02/03 06:03:56;;;;;;;0.40;0.40;;;;;;;;;;7399644;19;20494;-91
2023/02/03 06:06:23;;;;;;;0.30;0.30;;;;;;;;;;7399623;19;20137;-92
2023/02/03 06:08:55;;;;;;;0.30;0.30;;;;;;;;;;7399913;19;20854;-92
2023/02/03 06:11:23;;;;;;;0.20;0.20;;;;;;;;;;7399991;19;20156;-92
2023/02/03 06:13:50;;;;;;;0.20;0.20;;;;;;;;;;7399825;19;20640;-90
2023/02/03 06:16:17;;;;;;;0.20;0.20;;;;;;;;;;7400444;19;20475;-91
2023/02/03 06:18:43;;;;;;;0.20;0.20;;;;;;;;;;7399245;19;20141;-94
2023/02/03 06:21:10;;;;;;;0.20;0.20;;;;;;;;;;7399048;19;20133;-92
2023/02/03 06:23:36;;;;;;;0.30;0.30;;;;;;;;;;7397205;19;20605;-89
2023/02/03 06:26:03;;;;;;;0.30;0.30;;;;;;;;;;7399903;19;20136;-93
2023/02/03 06:28:32;;;;;;;0.30;0.30;;;;;;;;;;7398179;19;20133;-91
2023/02/03 06:30:59;;;;;;;0.30;0.30;;;;;;;;;;7397834;19;20162;-92
2023/02/03 06:33:25;;;;;;;0.30;0.30;;;;;;;;;;7396866;19;20160;-91
2023/02/03 06:35:53;;;;;;;0.30;0.30;;;;;;;;;;7397435;19;20475;-91
2023/02/03 06:38:19;;;;;;;0.30;0.30;;;;;;;;;;7397170;19;20172;-92
2023/02/03 06:40:46;;;;;;;0.20;0.20;;;;;;;;;;7397203;19;20136;-91
2023/02/03 06:43:14;;;;;;;0.30;0.30;;;;;;;;;;7392102;19;20474;-92
2023/02/03 06:45:41;;;;;;;0.30;0.30;;;;;;;;;;7397474;19;20139;-92
2023/02/03 06:48:07;;;;;;;0.30;0.30;;;;;;;;;;7398495;19;20144;-90
2023/02/03 06:50:34;;;;;;;0.27;0.27;;;;;;;;;;7398458;19;20153;-92
2023/02/03 06:53:01;;;;;;;0.30;0.30;;;;;;;;;;7399175;19;20145;-91
2023/02/03 06:55:28;;;;;;;0.30;0.30;;;;;;;;;;7398753;19;20161;-92
2023/02/03 06:57:54;;;;;;;0.20;0.20;;;;;;;;;;7390300;19;20133;-92
2023/02/03 07:00:21;;;;;;;0.27;0.27;;;;;;;;;;7389968;19;20172;-88
2023/02/03 07:02:58;;;;;;;0.30;0.30;;;;;;;;;;7389755;19;20136;-90
2023/02/03 07:05:27;;;;;;;0.30;0.30;;;;;;;;;;7391861;19;20510;-92
2023/02/03 07:07:54;;;;;;;0.30;0.30;;;;;;;;;;7397055;19;20133;-93
2023/02/03 07:10:21;;;;;;;0.40;0.40;;;;;;;;;;7394752;19;20132;-93
2023/02/03 07:12:49;;;;;;;0.30;0.30;;;;;;;;;;7394001;19;20129;-93
2023/02/03 07:15:16;;;;;;;0.30;0.30;;;;;;;;;;7390778;19;20144;-92
2023/02/03 07:17:43;;;;;;;0.30;0.30;;;;;;;;;;7392241;19;20137;-92
2023/02/03 07:20:10;;;;;;;0.30;0.30;;;;;;;;;;7392510;19;20615;-93
2023/02/03 07:22:38;;;;;;;0.20;0.20;;;;;;;;;;7390786;19;20608;-91
2023/02/03 07:25:04;;;;;;;0.20;0.20;;;;;;;;;;7390013;19;20157;-90
2023/02/03 07:27:31;;;;;;;0.20;0.20;;;;;;;;;;7394165;19;20164;-91
2023/02/03 07:29:58;;;;;;;0.30;0.30;;;;;;;;;;7393009;19;20137;-92
2023/02/03 07:32:24;;;;;;;0.27;0.27;;;;;;;;;;7391754;19;20125;-92
2023/02/03 07:34:51;;;;;;;1.50;1.40;;;;;;;;;;7391198;19;20145;-91
2023/02/03 07:37:17;;;;;;;0.23;0.23;;;;;;;;;;7394653;19;20137;-92
2023/02/03 07:39:45;;;;;;;0.30;0.30;;;;;;;;;;7394045;19;20133;-92
2023/02/03 07:42:11;;;;;;;0.30;0.30;;;;;;;;;;7395286;19;20129;-91
2023/02/03 07:44:38;;;;;;;0.27;0.27;;;;;;;;;;7394648;19;20176;-92
2023/02/03 07:47:04;;;;;;;0.30;0.30;;;;;;;;;;7393380;19;20160;-93
